Time;durP1;ratioP1;P1;durP2;ratioP2;P2;SDS_P1;SDS_P2;PMS_P1;PMS_P2;Temp;Humidity;BMP_temperature;BMP_pressure;BME280_temperature;BME280_humidity;BME280_pressure;Samples;Min_cycle;Max_cycle;Signal;HPM_P1;HPM_P2
2022/08/26 00:03:24;;;;;;;4.53;1.30;;;;;;;-144.43;100.00;67396.00;5092428;28;20040;-61
2022/08/26 00:06:49;;;;;;;5.90;1.63;;;;;;;-144.43;100.00;67396.00;5092804;28;20053;-63
2022/08/26 00:10:15;;;;;;;8.93;1.55;;;;;;;-144.43;100.00;67396.00;5084852;28;20082;-62
2022/08/26 00:13:41;;;;;;;4.75;1.60;;;;;;;-144.43;100.00;67396.00;5088279;28;20078;-63
2022/08/26 00:17:07;;;;;;;8.05;1.70;;;;;;;-144.43;100.00;67396.00;5087702;28;20497;-61
2022/08/26 00:20:33;;;;;;;4.78;1.70;;;;;;;-144.43;100.00;67396.00;5092310;28;20039;-61
2022/08/26 00:23:58;;;;;;;6.07;1.45;;;;;;;-144.43;100.00;67396.00;5087092;28;20029;-59
2022/08/26 00:27:24;;;;;;;4.38;1.60;;;;;;;-144.43;100.00;67396.00;5088909;28;20036;-60
2022/08/26 00:30:49;;;;;;;5.60;1.42;;;;;;;-144.43;100.00;67396.00;5084819;28;20043;-59
2022/08/26 00:34:15;;;;;;;7.85;1.70;;;;;;;-144.43;100.00;67396.00;5092500;28;20547;-59
2022/08/26 00:37:19;;;;;;;8.43;1.98;;;;;;;-144.43;100.00;67396.00;5075462;28;20075;-60
2022/08/26 00:39:45;;;;;;;16.73;2.05;;;;;;;-144.43;100.00;67396.00;5078915;28;20036;-58
2022/08/26 00:42:12;;;;;;;9.85;1.52;;;;;;;-144.43;100.00;67396.00;5087847;28;20336;-60
2022/08/26 00:44:39;;;;;;;11.00;2.13;;;;;;;-144.43;100.00;67396.00;5075502;28;20040;-60
2022/08/26 00:47:10;;;;;;;7.32;1.63;;;;;;;-144.43;100.00;67396.00;5085755;28;20062;-59
2022/08/26 00:49:43;;;;;;;6.15;1.75;;;;;;;-144.43;100.00;67396.00;5082694;28;20032;-59
2022/08/26 00:52:14;;;;;;;6.30;1.58;;;;;;;-144.43;100.00;67396.00;5092262;28;20040;-60
2022/08/26 00:54:48;;;;;;;5.57;1.73;;;;;;;-144.43;100.00;67396.00;5089272;28;20107;-61
2022/08/26 00:57:17;;;;;;;5.82;1.73;;;;;;;-144.43;100.00;67396.00;5079771;28;20070;-59
2022/08/26 00:59:47;;;;;;;7.93;1.80;;;;;;;-144.43;100.00;67396.00;5080108;28;20481;-61
2022/08/26 01:02:14;;;;;;;7.00;1.60;;;;;;;-144.43;100.00;67396.00;5087061;28;20032;-61
2022/08/26 01:04:41;;;;;;;6.15;1.58;;;;;;;-144.43;100.00;67396.00;5091109;28;20465;-62
2022/08/26 01:07:09;;;;;;;5.25;1.52;;;;;;;-144.43;100.00;67396.00;5090758;28;20462;-61
2022/08/26 01:09:37;;;;;;;6.43;1.55;;;;;;;-144.43;100.00;67396.00;5091426;28;20119;-60
2022/08/26 01:12:04;;;;;;;3.97;1.50;;;;;;;-144.43;100.00;67396.00;5091636;28;20059;-62
2022/08/26 01:14:33;;;;;;;8.48;1.63;;;;;;;-144.43;100.00;67396.00;5091415;28;20513;-59
2022/08/26 01:17:03;;;;;;;3.97;1.52;;;;;;;-144.43;100.00;67396.00;5079785;28;20481;-60
2022/08/26 01:19:51;;;;;;;3.83;1.42;;;;;;;-144.43;100.00;67396.00;5091306;28;20063;-60
2022/08/26 01:22:30;;;;;;;4.30;1.55;;;;;;;-144.43;100.00;67396.00;5078307;28;20461;-62
2022/08/26 01:25:01;;;;;;;7.65;1.60;;;;;;;-144.43;100.00;67396.00;5103694;28;20114;-61
2022/08/26 01:27:30;;;;;;;9.70;1.77;;;;;;;-144.43;100.00;67396.00;5092912;28;20036;-59
2022/08/26 01:30:00;;;;;;;6.15;1.70;;;;;;;-144.43;100.00;67396.00;5078273;28;20102;-61
2022/08/26 01:32:28;;;;;;;6.70;1.60;;;;;;;-144.43;100.00;67396.00;5087905;28;20027;-61
2022/08/26 01:34:55;;;;;;;5.57;1.70;;;;;;;-144.43;100.00;67396.00;5094208;28;20473;-62
2022/08/26 01:37:26;;;;;;;6.82;2.00;;;;;;;-144.43;100.00;67396.00;5084391;28;20036;-61
2022/08/26 01:39:55;;;;;;;7.13;1.60;;;;;;;-144.43;100.00;67396.00;5094546;28;20032;-63
2022/08/26 01:42:24;;;;;;;4.10;1.80;;;;;;;-144.43;100.00;67396.00;5092548;28;20371;-60
2022/08/26 01:45:17;;;;;;;8.32;1.67;;;;;;;-144.43;100.00;67396.00;5095053;28;20386;-61
2022/08/26 01:47:45;;;;;;;9.93;2.08;;;;;;;-144.43;100.00;67396.00;5096029;28;20074;-61
2022/08/26 01:50:20;;;;;;;6.57;2.00;;;;;;;-144.43;100.00;67396.00;5096138;28;20482;-61
2022/08/26 01:52:48;;;;;;;8.10;1.90;;;;;;;-144.43;100.00;67396.00;5102492;28;20032;-61
2022/08/26 01:55:18;;;;;;;8.15;1.65;;;;;;;-144.43;100.00;67396.00;5092536;28;20034;-61
2022/08/26 01:57:47;;;;;;;10.57;1.95;;;;;;;-144.43;100.00;67396.00;5092737;28;20119;-60
2022/08/26 02:00:16;;;;;;;6.10;1.65;;;;;;;-144.43;100.00;67396.00;5092361;28;20533;-60
2022/08/26 02:02:49;;;;;;;8.55;1.80;;;;;;;-144.43;100.00;67396.00;5096953;28;20028;-59
2022/08/26 02:05:19;;;;;;;8.48;2.10;;;;;;;-144.43;100.00;67396.00;5092168;28;20059;-60
2022/08/26 02:07:49;;;;;;;6.68;2.10;;;;;;;-144.43;100.00;67396.00;5092439;28;20044;-61
2022/08/26 02:10:16;;;;;;;10.65;2.20;;;;;;;-144.43;100.00;67396.00;5094121;28;20436;-61
2022/08/26 02:12:42;;;;;;;11.82;2.10;;;;;;;-144.43;100.00;67396.00;5080158;28;20035;-62
2022/08/26 02:15:11;;;;;;;20.88;2.80;;;;;;;-144.43;100.00;67396.00;5077374;28;20111;-61
2022/08/26 02:17:46;;;;;;;45.85;4.05;;;;;;;-144.43;100.00;67396.00;5092674;28;20032;-62
2022/08/26 02:20:16;;;;;;;8.57;2.47;;;;;;;-144.43;100.00;67396.00;5091764;28;20118;-60
2022/08/26 02:22:44;;;;;;;6.78;2.10;;;;;;;-144.43;100.00;67396.00;5091432;28;20111;-61
2022/08/26 02:25:31;;;;;;;10.27;2.33;;;;;;;-144.43;100.00;67396.00;5092119;28;20028;-60
2022/08/26 02:27:58;;;;;;;7.03;2.20;;;;;;;-144.43;100.00;67396.00;5083866;28;20047;-60
2022/08/26 02:30:28;;;;;;;16.90;2.78;;;;;;;-144.43;100.00;67396.00;5088159;28;20551;-61
2022/08/26 02:32:58;;;;;;;6.65;2.25;;;;;;;-144.43;100.00;67396.00;5084583;28;20519;-61
2022/08/26 02:35:25;;;;;;;11.95;2.40;;;;;;;-144.43;100.00;67396.00;5093668;28;20039;-59
2022/08/26 02:37:52;;;;;;;12.63;2.20;;;;;;;-144.43;100.00;67396.00;5092119;28;20512;-61
2022/08/26 02:40:24;;;;;;;11.30;2.83;;;;;;;-144.43;100.00;67396.00;5079941;28;20538;-61
2022/08/26 02:42:51;;;;;;;12.93;3.10;;;;;;;-144.43;100.00;67396.00;5094789;28;20031;-61
2022/08/26 02:45:18;;;;;;;9.70;2.53;;;;;;;-144.43;100.00;67396.00;5093929;28;20028;-62
2022/08/26 02:47:44;;;;;;;10.32;2.15;;;;;;;-144.43;100.00;67396.00;5084069;28;20066;-57
2022/08/26 02:50:11;;;;;;;14.32;2.60;;;;;;;-144.43;100.00;67396.00;5086200;28;20020;-60
2022/08/26 02:52:38;;;;;;;16.60;3.00;;;;;;;-144.43;100.00;67396.00;5093735;28;20032;-60
2022/08/26 02:55:05;;;;;;;12.60;2.67;;;;;;;-144.43;100.00;67396.00;5094174;28;20055;-60
2022/08/26 02:57:32;;;;;;;10.93;2.33;;;;;;;-144.43;100.00;67396.00;5091444;28;20025;-60
2022/08/26 03:00:00;;;;;;;8.93;2.45;;;;;;;-144.43;100.00;67396.00;5094531;28;20047;-63
2022/08/26 03:02:27;;;;;;;9.88;2.20;;;;;;;-144.43;100.00;67396.00;5095371;28;20038;-62
2022/08/26 03:04:54;;;;;;;9.88;2.30;;;;;;;-144.43;100.00;67396.00;5093453;28;20032;-60
2022/08/26 03:07:21;;;;;;;8.10;2.33;;;;;;;-144.43;100.00;67396.00;5092966;28;20501;-59
2022/08/26 03:09:47;;;;;;;15.57;2.75;;;;;;;-144.43;100.00;67396.00;5091709;28;20185;-60
2022/08/26 03:12:14;;;;;;;9.32;2.20;;;;;;;-144.43;100.00;67396.00;5089471;28;20039;-60
2022/08/26 03:14:40;;;;;;;12.02;2.60;;;;;;;-144.43;100.00;67396.00;5085896;28;20386;-62
2022/08/26 03:17:07;;;;;;;11.88;2.67;;;;;;;-144.43;100.00;67396.00;5093401;28;20072;-61
2022/08/26 03:19:34;;;;;;;13.20;3.10;;;;;;;-144.43;100.00;67396.00;5082913;28;20363;-61
2022/08/26 03:22:02;;;;;;;13.70;3.47;;;;;;;-144.43;100.00;67396.00;5093540;28;20077;-60
2022/08/26 03:24:29;;;;;;;17.30;3.53;;;;;;;-144.43;100.00;67396.00;5085771;28;20387;-61
2022/08/26 03:26:56;;;;;;;13.73;3.20;;;;;;;-144.43;100.00;67396.00;5086182;28;20553;-61
2022/08/26 03:32:09;;;;;;;17.23;2.92;;;;;;;-144.43;100.00;67396.00;5091255;28;20036;-59
2022/08/26 03:34:36;;;;;;;34.17;4.10;;;;;;;-144.43;100.00;67396.00;5091435;28;20390;-60
2022/08/26 03:37:02;;;;;;;16.27;3.13;;;;;;;-144.43;100.00;67396.00;5082634;28;20387;-58
2022/08/26 03:39:29;;;;;;;15.07;2.78;;;;;;;-144.43;100.00;67396.00;5092623;28;20046;-58
2022/08/26 03:41:57;;;;;;;17.70;2.92;;;;;;;-144.43;100.00;67396.00;5085920;28;20039;-61
2022/08/26 03:44:24;;;;;;;12.50;2.97;;;;;;;-144.43;100.00;67396.00;5090809;28;20020;-59
2022/08/26 03:46:51;;;;;;;14.23;3.25;;;;;;;-144.43;100.00;67396.00;5088509;28;20486;-60
2022/08/26 03:49:17;;;;;;;23.88;4.10;;;;;;;-144.43;100.00;67396.00;5091242;28;20043;-60
2022/08/26 03:51:44;;;;;;;18.77;3.72;;;;;;;-144.43;100.00;67396.00;5092065;28;20036;-61
2022/08/26 03:54:11;;;;;;;19.50;4.15;;;;;;;-144.43;100.00;67396.00;5092528;28;20020;-60
2022/08/26 03:56:37;;;;;;;15.55;3.58;;;;;;;-144.43;100.00;67396.00;5091043;28;20086;-59
2022/08/26 03:59:04;;;;;;;15.38;3.50;;;;;;;-144.43;100.00;67396.00;5089353;28;20028;-60
2022/08/26 04:01:31;;;;;;;11.23;3.17;;;;;;;-144.43;100.00;67396.00;5090471;28;20394;-60
2022/08/26 04:03:59;;;;;;;16.23;3.47;;;;;;;-144.43;100.00;67396.00;5080495;28;20043;-60
2022/08/26 04:06:29;;;;;;;15.52;3.65;;;;;;;-144.43;100.00;67396.00;5089861;28;20111;-59
2022/08/26 04:08:59;;;;;;;13.18;3.40;;;;;;;-144.43;100.00;67396.00;5090981;28;20085;-62
2022/08/26 04:11:30;;;;;;;13.45;3.42;;;;;;;-144.43;100.00;67396.00;5091723;28;20039;-60
2022/08/26 04:13:58;;;;;;;11.75;4.00;;;;;;;-144.43;100.00;67396.00;5092348;28;20039;-61
2022/08/26 04:16:27;;;;;;;16.00;5.03;;;;;;;-144.43;100.00;67396.00;5090166;28;21883;-61
2022/08/26 04:18:55;;;;;;;14.15;4.70;;;;;;;-144.43;100.00;67396.00;5089284;28;20032;-62
2022/08/26 04:21:23;;;;;;;14.90;5.70;;;;;;;-144.43;100.00;67396.00;5091608;28;20103;-60
2022/08/26 04:23:50;;;;;;;14.20;5.70;;;;;;;-144.43;100.00;67396.00;5090886;28;20494;-60
2022/08/26 04:26:19;;;;;;;22.88;6.38;;;;;;;-144.43;100.00;67396.00;5091902;28;20032;-58
2022/08/26 04:28:47;;;;;;;16.23;6.22;;;;;;;-144.43;100.00;67396.00;5091272;28;20062;-62
2022/08/26 04:31:16;;;;;;;22.92;6.32;;;;;;;-144.43;100.00;67396.00;5091459;28;20032;-62
2022/08/26 04:33:46;;;;;;;13.63;5.72;;;;;;;-144.43;100.00;67396.00;5090362;28;20535;-62
2022/08/26 04:36:13;;;;;;;13.23;5.10;;;;;;;-144.43;100.00;67396.00;5090243;28;20043;-62
2022/08/26 04:38:40;;;;;;;18.50;4.72;;;;;;;-144.43;100.00;67396.00;5091012;28;20024;-61
2022/08/26 04:41:10;;;;;;;11.50;2.97;;;;;;;-144.43;100.00;67396.00;5092183;28;20036;-63
2022/08/26 04:43:37;;;;;;;9.70;2.95;;;;;;;-144.43;100.00;67396.00;5091915;28;20110;-62
2022/08/26 04:46:05;;;;;;;7.30;2.53;;;;;;;-144.43;100.00;67396.00;5089084;28;20062;-62
2022/08/26 04:48:32;;;;;;;13.32;2.33;;;;;;;-144.43;100.00;67396.00;5091809;28;20073;-60
2022/08/26 04:51:00;;;;;;;10.18;2.17;;;;;;;-144.43;100.00;67396.00;5085014;28;20050;-64
2022/08/26 04:53:27;;;;;;;8.60;2.13;;;;;;;-144.43;100.00;67396.00;5091349;28;20036;-61
2022/08/26 04:55:53;;;;;;;9.60;2.10;;;;;;;-144.43;100.00;67396.00;5090959;28;20059;-62
2022/08/26 04:58:23;;;;;;;8.95;2.00;;;;;;;-144.43;100.00;67396.00;5091011;28;20040;-63
2022/08/26 05:00:52;;;;;;;12.05;2.40;;;;;;;-144.43;100.00;67396.00;5095198;28;20072;-63
2022/08/26 05:03:19;;;;;;;12.18;2.72;;;;;;;-144.43;100.00;67396.00;5095024;28;20081;-63
2022/08/26 05:05:48;;;;;;;11.65;2.67;;;;;;;-144.43;100.00;67396.00;5095414;28;20048;-63
2022/08/26 05:08:16;;;;;;;8.45;2.63;;;;;;;-144.43;100.00;67396.00;5095413;28;20032;-62
2022/08/26 05:10:47;;;;;;;9.48;2.80;;;;;;;-144.43;100.00;67396.00;5093227;28;20565;-61
2022/08/26 05:13:17;;;;;;;8.88;2.67;;;;;;;-144.43;100.00;67396.00;5080825;28;20042;-61
2022/08/26 05:15:46;;;;;;;12.73;3.03;;;;;;;-144.43;100.00;67396.00;5092645;28;20021;-64
2022/08/26 05:18:20;;;;;;;9.68;2.95;;;;;;;-144.43;100.00;67396.00;5092130;28;20040;-60
2022/08/26 05:20:50;;;;;;;16.50;2.72;;;;;;;-144.43;100.00;67396.00;5094094;28;20092;-62
2022/08/26 05:23:18;;;;;;;8.50;2.63;;;;;;;-144.43;100.00;67396.00;5092715;28;20032;-62
2022/08/26 05:25:46;;;;;;;9.05;2.40;;;;;;;-144.43;100.00;67396.00;5093078;28;20212;-62
2022/08/26 05:28:17;;;;;;;11.27;2.90;;;;;;;-144.43;100.00;67396.00;5092076;28;20035;-60
2022/08/26 05:30:49;;;;;;;12.88;2.60;;;;;;;-144.43;100.00;67396.00;5093761;28;20402;-64
2022/08/26 05:33:18;;;;;;;;;;;;;;;-144.43;100.00;67396.00;5093244;28;20063;-62
2022/08/26 05:35:45;;;;;;;12.00;3.58;;;;;;;-144.43;100.00;67396.00;5092619;28;19934;-63
2022/08/26 05:38:16;;;;;;;11.75;3.10;;;;;;;-144.43;100.00;67396.00;5092304;28;20116;-64
2022/08/26 05:40:45;;;;;;;13.35;3.53;;;;;;;-144.43;100.00;67396.00;5092912;28;20101;-62
2022/08/26 05:43:13;;;;;;;10.23;3.17;;;;;;;-144.43;100.00;67396.00;5093820;28;20020;-63
2022/08/26 05:45:48;;;;;;;8.13;3.28;;;;;;;-144.43;100.00;67396.00;5094734;28;20032;-62
2022/08/26 05:48:17;;;;;;;8.85;3.10;;;;;;;-144.43;100.00;67396.00;5085475;28;20063;-61
2022/08/26 05:50:46;;;;;;;8.65;2.83;;;;;;;-144.43;100.00;67396.00;5090708;28;20056;-62
2022/08/26 05:53:15;;;;;;;12.65;3.30;;;;;;;-144.43;100.00;67396.00;5095679;28;20024;-62
2022/08/26 05:55:48;;;;;;;10.13;2.78;;;;;;;-144.43;100.00;67396.00;5095422;28;20027;-60
2022/08/26 05:58:16;;;;;;;9.73;2.75;;;;;;;-144.43;100.00;67396.00;5090091;28;20137;-62
2022/08/26 06:00:43;;;;;;;13.07;3.17;;;;;;;-144.43;100.00;67396.00;5093358;28;20506;-60
2022/08/26 06:03:10;;;;;;;8.18;3.20;;;;;;;-144.43;100.00;67396.00;5086853;28;20033;-62
2022/08/26 06:05:38;;;;;;;8.52;3.20;;;;;;;-144.43;100.00;67396.00;5100324;28;20051;-60
2022/08/26 06:08:15;;;;;;;11.13;3.00;;;;;;;-144.43;100.00;67396.00;5094769;28;20483;-60
2022/08/26 06:10:53;;;;;;;8.27;2.63;;;;;;;-144.43;100.00;67396.00;5092513;28;20394;-60
2022/08/26 06:13:22;;;;;;;8.45;3.30;;;;;;;-144.43;100.00;67396.00;5082631;28;20050;-61
2022/08/26 06:15:50;;;;;;;10.88;3.28;;;;;;;-144.43;100.00;67396.00;5094464;28;20032;-61
2022/08/26 06:18:26;;;;;;;9.13;3.00;;;;;;;-144.43;100.00;67396.00;5080155;28;20074;-60
2022/08/26 06:20:54;;;;;;;11.40;3.42;;;;;;;-144.43;100.00;67396.00;5088846;28;20028;-60
2022/08/26 06:26:08;;;;;;;17.55;5.88;;;;;;;-144.43;100.00;67396.00;5093108;28;20040;-60
2022/08/26 06:28:34;;;;;;;18.70;6.03;;;;;;;-144.43;100.00;67396.00;5093090;28;20032;-61
2022/08/26 06:31:05;;;;;;;15.52;5.60;;;;;;;-144.43;100.00;67396.00;5094056;28;20475;-61
2022/08/26 06:33:32;;;;;;;13.68;5.35;;;;;;;-144.43;100.00;67396.00;5095610;28;20043;-61
2022/08/26 06:36:00;;;;;;;14.73;5.80;;;;;;;-144.43;100.00;67396.00;5094138;28;20383;-61
2022/08/26 06:38:26;;;;;;;16.33;5.35;;;;;;;-144.43;100.00;67396.00;5094067;28;20051;-61
2022/08/26 06:40:56;;;;;;;12.90;5.43;;;;;;;-144.43;100.00;67396.00;5086139;28;20111;-61
2022/08/26 06:43:28;;;;;;;17.00;4.55;;;;;;;-144.43;100.00;67396.00;5095815;28;20119;-61
2022/08/26 06:46:07;;;;;;;13.30;4.30;;;;;;;-144.43;100.00;67396.00;5093885;28;20043;-61
2022/08/26 06:48:34;;;;;;;13.05;3.90;;;;;;;-144.43;100.00;67396.00;5093634;28;20031;-61
2022/08/26 06:51:16;;;;;;;12.35;3.90;;;;;;;-144.43;100.00;67396.00;5092460;28;20051;-60
2022/08/26 06:53:45;;;;;;;11.20;3.53;;;;;;;-144.43;100.00;67396.00;5092211;28;20419;-62
2022/08/26 06:56:15;;;;;;;8.57;3.90;;;;;;;-144.43;100.00;67396.00;5092205;28;20474;-60
2022/08/26 06:58:42;;;;;;;9.32;3.80;;;;;;;-144.43;100.00;67396.00;5093412;28;20490;-61
2022/08/26 07:01:24;;;;;;;13.00;3.40;;;;;;;-144.43;100.00;67396.00;5093315;28;20031;-61
2022/08/26 07:03:54;;;;;;;10.25;3.53;;;;;;;-144.43;100.00;67396.00;5090842;28;20482;-60
2022/08/26 07:06:22;;;;;;;16.15;4.57;;;;;;;-144.43;100.00;67396.00;5090162;28;20454;-61
2022/08/26 07:08:53;;;;;;;9.82;4.10;;;;;;;-144.43;100.00;67396.00;5093542;28;20043;-59
2022/08/26 07:11:20;;;;;;;14.38;3.42;;;;;;;-144.43;100.00;67396.00;5093443;28;20020;-58
2022/08/26 07:13:52;;;;;;;9.15;3.60;;;;;;;-144.43;100.00;67396.00;5093085;28;20030;-60
2022/08/26 07:16:20;;;;;;;11.00;3.78;;;;;;;-144.43;100.00;67396.00;5093125;28;20024;-58
2022/08/26 07:18:51;;;;;;;17.48;5.20;;;;;;;-144.43;100.00;67396.00;5090544;28;20032;-60
2022/08/26 07:21:20;;;;;;;21.05;6.72;;;;;;;-144.43;100.00;67396.00;5091767;28;20035;-60
2022/08/26 07:23:48;;;;;;;25.63;8.05;;;;;;;-144.43;100.00;67396.00;5092890;28;20080;-59
2022/08/26 07:26:19;;;;;;;20.15;7.05;;;;;;;-144.43;100.00;67396.00;5092264;28;20127;-58
2022/08/26 07:28:49;;;;;;;20.48;7.30;;;;;;;-144.43;100.00;67396.00;5090902;28;20512;-58
2022/08/26 07:31:17;;;;;;;28.88;8.50;;;;;;;-144.43;100.00;67396.00;5092927;28;20050;-60
2022/08/26 07:33:46;;;;;;;19.05;8.02;;;;;;;-144.43;100.00;67396.00;5088697;28;20153;-59
2022/08/26 07:36:18;;;;;;;13.70;6.93;;;;;;;-144.43;100.00;67396.00;5092706;28;20044;-59
2022/08/26 07:38:48;;;;;;;17.55;5.28;;;;;;;-144.43;100.00;67396.00;5076809;28;20059;-58
2022/08/26 07:41:17;;;;;;;17.42;4.80;;;;;;;-144.43;100.00;67396.00;5091408;28;20048;-59
2022/08/26 07:43:44;;;;;;;12.30;4.20;;;;;;;-144.43;100.00;67396.00;5080955;28;20033;-59
2022/08/26 07:46:17;;;;;;;13.82;4.95;;;;;;;-144.43;100.00;67396.00;5088401;28;20069;-59
2022/08/26 07:48:45;;;;;;;11.80;4.22;;;;;;;-144.43;100.00;67396.00;5076192;28;20120;-59
2022/08/26 07:51:15;;;;;;;10.10;4.70;;;;;;;-144.43;100.00;67396.00;5092665;28;20394;-61
2022/08/26 07:53:42;;;;;;;15.93;8.75;;;;;;;-144.43;100.00;67396.00;5091520;28;20032;-58
2022/08/26 07:56:10;;;;;;;25.92;15.32;;;;;;;-144.43;100.00;67396.00;5077202;28;20032;-61
2022/08/26 07:58:36;;;;;;;26.90;16.42;;;;;;;-144.43;100.00;67396.00;5089154;28;20028;-59
2022/08/26 08:01:04;;;;;;;19.92;9.70;;;;;;;-144.43;100.00;67396.00;5081948;28;20052;-59
2022/08/26 08:03:32;;;;;;;17.45;6.03;;;;;;;-144.43;100.00;67396.00;5092574;28;20514;-57
2022/08/26 08:05:59;;;;;;;16.40;4.60;;;;;;;-144.43;100.00;67396.00;5078721;28;20426;-58
2022/08/26 08:08:27;;;;;;;18.55;4.70;;;;;;;-144.43;100.00;67396.00;5089430;28;20513;-61
2022/08/26 08:10:57;;;;;;;18.83;5.38;;;;;;;-144.43;100.00;67396.00;5092577;28;20036;-59
2022/08/26 08:13:27;;;;;;;22.65;7.35;;;;;;;-144.43;100.00;67396.00;5083192;28;20056;-59
2022/08/26 08:15:55;;;;;;;24.95;9.00;;;;;;;-144.43;100.00;67396.00;5085773;28;20040;-58
2022/08/26 08:18:27;;;;;;;21.77;5.20;;;;;;;-144.43;100.00;67396.00;5075271;28;20451;-58
2022/08/26 08:21:02;;;;;;;16.38;5.03;;;;;;;-144.43;100.00;67396.00;5091144;28;20036;-59
2022/08/26 08:23:31;;;;;;;17.80;5.93;;;;;;;-144.43;100.00;67396.00;5082167;28;20051;-59
2022/08/26 08:26:08;;;;;;;14.88;4.70;;;;;;;-144.43;100.00;67396.00;5081140;28;20141;-59
2022/08/26 08:28:38;;;;;;;18.17;5.10;;;;;;;-144.43;100.00;67396.00;5088488;28;20127;-58
2022/08/26 08:31:05;;;;;;;21.77;5.45;;;;;;;-144.43;100.00;67396.00;5075360;28;20028;-58
2022/08/26 08:33:33;;;;;;;25.38;4.57;;;;;;;-144.43;100.00;67396.00;5091434;28;20508;-59
2022/08/26 08:36:01;;;;;;;16.88;3.88;;;;;;;-144.43;100.00;67396.00;5080730;28;20037;-59
2022/08/26 08:38:28;;;;;;;13.88;3.80;;;;;;;-144.43;100.00;67396.00;5087430;28;20051;-59
2022/08/26 08:40:55;;;;;;;14.25;3.53;;;;;;;-144.43;100.00;67396.00;5075577;28;20046;-60
2022/08/26 08:43:37;;;;;;;13.90;3.50;;;;;;;-144.43;100.00;67396.00;5086212;28;20028;-59
2022/08/26 08:46:12;;;;;;;17.08;3.63;;;;;;;-144.43;100.00;67396.00;5085814;28;20131;-60
2022/08/26 08:48:50;;;;;;;15.10;3.75;;;;;;;-144.43;100.00;67396.00;5090050;28;20516;-61
2022/08/26 08:51:29;;;;;;;16.58;3.95;;;;;;;-144.43;100.00;67396.00;5090252;28;20051;-60
2022/08/26 08:53:58;;;;;;;16.02;4.25;;;;;;;-144.43;100.00;67396.00;5081911;28;20026;-60
2022/08/26 08:56:52;;;;;;;13.13;4.35;;;;;;;-144.43;100.00;67396.00;5091433;28;20024;-59
2022/08/26 08:59:26;;;;;;;14.43;4.28;;;;;;;-144.43;100.00;67396.00;5091226;28;20070;-62
2022/08/26 09:02:29;;;;;;;14.38;4.55;;;;;;;-144.43;100.00;67396.00;5091941;28;20035;-60
2022/08/26 09:05:05;;;;;;;13.63;5.22;;;;;;;-144.43;100.00;67396.00;5052036;28;20391;-62
2022/08/26 09:07:35;;;;;;;11.73;4.85;;;;;;;-144.43;100.00;67396.00;5092700;28;20028;-61
2022/08/26 09:10:23;;;;;;;14.93;5.95;;;;;;;-144.43;100.00;67396.00;5092454;28;20032;-62
2022/08/26 09:12:51;;;;;;;14.85;6.35;;;;;;;-144.43;100.00;67396.00;5091759;28;20032;-60
2022/08/26 09:15:37;;;;;;;18.10;7.15;;;;;;;-144.43;100.00;67396.00;5091399;28;20459;-61
2022/08/26 09:18:23;;;;;;;18.08;6.50;;;;;;;-144.43;100.00;67396.00;5092249;28;20089;-61
2022/08/26 09:21:02;;;;;;;17.27;5.25;;;;;;;-144.43;100.00;67396.00;5092500;28;20047;-61
2022/08/26 09:23:33;;;;;;;13.57;4.85;;;;;;;-144.43;100.00;67396.00;5092064;28;20028;-61
2022/08/26 09:26:12;;;;;;;15.93;5.82;;;;;;;-144.43;100.00;67396.00;5092333;28;20498;-60
2022/08/26 09:28:46;;;;;;;20.40;6.30;;;;;;;-144.43;100.00;67396.00;5091021;28;20051;-61
2022/08/26 09:31:24;;;;;;;17.02;6.55;;;;;;;-144.43;100.00;67396.00;5092333;28;20043;-59
2022/08/26 09:34:12;;;;;;;17.77;6.53;;;;;;;-144.43;100.00;67396.00;5092390;28;20102;-60
2022/08/26 09:36:43;;;;;;;14.95;6.68;;;;;;;-144.43;100.00;67396.00;5092081;28;20517;-61
2022/08/26 09:39:39;;;;;;;16.90;7.35;;;;;;;-144.43;100.00;67396.00;5092247;28;20129;-62
2022/08/26 09:42:10;;;;;;;16.17;6.90;;;;;;;-144.43;100.00;67396.00;5074738;28;20040;-60
2022/08/26 09:44:57;;;;;;;15.20;6.65;;;;;;;-144.43;100.00;67396.00;5093434;28;20043;-61
2022/08/26 09:47:32;;;;;;;17.10;6.85;;;;;;;-144.43;100.00;67396.00;5094904;28;20032;-59
2022/08/26 09:50:30;;;;;;;35.65;7.85;;;;;;;-144.43;100.00;67396.00;5095890;28;20169;-62
2022/08/26 09:53:15;;;;;;;19.38;6.63;;;;;;;-144.43;100.00;67396.00;5095765;28;20078;-64
2022/08/26 09:55:44;;;;;;;15.63;6.10;;;;;;;-144.43;100.00;67396.00;5096133;28;20101;-62
2022/08/26 09:58:30;;;;;;;15.32;5.95;;;;;;;-144.43;100.00;67396.00;5095646;28;20043;-62
2022/08/26 10:01:00;;;;;;;14.23;4.80;;;;;;;-144.43;100.00;67396.00;5095691;28;20406;-60
2022/08/26 10:03:31;;;;;;;15.43;4.95;;;;;;;-144.43;100.00;67396.00;5095678;28;20032;-61
2022/08/26 10:06:18;;;;;;;11.68;4.70;;;;;;;-144.43;100.00;67396.00;5095579;28;20066;-59
2022/08/26 10:08:51;;;;;;;13.05;4.70;;;;;;;-144.43;100.00;67396.00;5095740;28;20043;-61
2022/08/26 10:11:37;;;;;;;14.57;4.93;;;;;;;-144.43;100.00;67396.00;5095564;28;20028;-62
2022/08/26 10:14:13;;;;;;;9.68;4.35;;;;;;;-144.43;100.00;67396.00;5095410;28;20486;-61
2022/08/26 10:16:53;;;;;;;21.48;5.05;;;;;;;-144.43;100.00;67396.00;5095376;28;20043;-61
2022/08/26 10:19:51;;;;;;;13.98;4.40;;;;;;;-144.43;100.00;67396.00;5095538;28;20483;-61
2022/08/26 10:22:40;;;;;;;15.50;4.57;;;;;;;-144.43;100.00;67396.00;5095186;28;20032;-61
2022/08/26 10:25:12;;;;;;;11.95;4.35;;;;;;;-144.43;100.00;67396.00;5095616;28;20051;-62
2022/08/26 10:27:54;;;;;;;13.43;4.32;;;;;;;-144.43;100.00;67396.00;5095227;28;20111;-62
2022/08/26 10:30:26;;;;;;;12.20;4.22;;;;;;;-144.43;100.00;67396.00;5095447;28;20059;-58
2022/08/26 10:33:13;;;;;;;11.68;4.28;;;;;;;-144.43;100.00;67396.00;5095063;28;20127;-59
2022/08/26 10:36:47;;;;;;;14.82;4.35;;;;;;;-144.43;100.00;67396.00;5094934;28;20072;-59
2022/08/26 10:39:01;;;;;;;9.27;3.67;;;;;;;-144.43;100.00;67396.00;5094738;28;20046;-59
2022/08/26 10:41:35;;;;;;;13.32;3.50;;;;;;;-144.43;100.00;67396.00;5095512;28;20036;-60
2022/08/26 10:44:04;;;;;;;11.07;2.78;;;;;;;-144.43;100.00;67396.00;5094924;28;20158;-60
2022/08/26 10:46:46;;;;;;;10.45;3.28;;;;;;;-144.43;100.00;67396.00;5094955;28;20379;-60
2022/08/26 10:49:16;;;;;;;8.93;3.00;;;;;;;-144.43;100.00;67396.00;5094829;28;20084;-60
2022/08/26 10:52:08;;;;;;;8.55;2.60;;;;;;;-144.43;100.00;67396.00;5094747;28;20028;-59
2022/08/26 10:55:15;;;;;;;10.23;3.10;;;;;;;-144.43;100.00;67396.00;5094781;28;20028;-61
2022/08/26 10:57:51;;;;;;;10.57;2.70;;;;;;;-144.43;100.00;67396.00;5083082;28;20105;-61
2022/08/26 11:03:50;;;;;;;11.18;3.30;;;;;;;-144.43;100.00;67396.00;5094568;28;20395;-60
2022/08/26 11:06:27;;;;;;;11.00;3.03;;;;;;;-144.43;100.00;67396.00;5054153;28;20041;-62
2022/08/26 11:08:56;;;;;;;9.50;2.88;;;;;;;-144.43;100.00;67396.00;5054249;28;20028;-61
2022/08/26 11:11:44;;;;;;;10.65;3.28;;;;;;;-144.43;100.00;67396.00;5054149;28;20024;-61
2022/08/26 11:14:19;;;;;;;8.52;2.72;;;;;;;-144.43;100.00;67396.00;5054049;28;20037;-61
2022/08/26 11:16:53;;;;;;;9.07;2.67;;;;;;;-144.43;100.00;67396.00;5054065;28;20091;-61
2022/08/26 11:19:38;;;;;;;9.30;2.58;;;;;;;-144.43;100.00;67396.00;5053974;28;20037;-59
2022/08/26 11:22:08;;;;;;;11.45;3.00;;;;;;;-144.43;100.00;67396.00;5053850;28;20037;-59
2022/08/26 11:25:03;;;;;;;11.43;2.63;;;;;;;-144.43;100.00;67396.00;5053828;28;20128;-61
2022/08/26 11:27:35;;;;;;;9.10;2.92;;;;;;;-144.43;100.00;67396.00;5053168;28;20057;-61
2022/08/26 11:30:14;;;;;;;15.90;3.50;;;;;;;-144.43;100.00;67396.00;5053877;28;20033;-60
2022/08/26 11:32:43;;;;;;;12.95;2.88;;;;;;;-144.43;100.00;67396.00;5053724;28;20487;-61
2022/08/26 11:35:35;;;;;;;10.82;2.65;;;;;;;-144.43;100.00;67396.00;5053651;28;20036;-61
2022/08/26 11:38:24;;;;;;;8.85;2.50;;;;;;;-144.43;100.00;67396.00;5053507;28;20033;-60
2022/08/26 11:41:07;;;;;;;9.68;2.97;;;;;;;-144.43;100.00;67396.00;5053745;28;20029;-61
2022/08/26 11:43:38;;;;;;;9.85;2.60;;;;;;;-144.43;100.00;67396.00;5053414;28;20029;-59
2022/08/26 11:46:07;;;;;;;9.13;2.88;;;;;;;-144.43;100.00;67396.00;5053540;28;20098;-60